Time;durP1;ratioP1;P1;durP2;ratioP2;P2;SDS_P1;SDS_P2;PMS_P1;PMS_P2;Temp;Humidity;BMP_temperature;BMP_pressure;BME280_temperature;BME280_humidity;BME280_pressure;Samples;Min_cycle;Max_cycle;Signal;HPM_P1;HPM_P2
2023/06/08 00:01:16;;;;;;;9.93;5.43;;;19.30;99.90;;;;;;10225147;28;20574;-72
2023/06/08 00:06:20;;;;;;;9.33;6.10;;;19.20;99.90;;;;;;10235743;28;20328;-71
2023/06/08 00:11:20;;;;;;;9.03;5.43;;;19.10;99.90;;;;;;10220378;28;20304;-71
2023/06/08 00:16:21;;;;;;;6.10;5.10;;;19.10;99.90;;;;;;10219932;28;20376;-71
2023/06/08 00:21:26;;;;;;;6.07;5.13;;;19.00;99.90;;;;;;10228696;28;20227;-70
2023/06/08 00:26:26;;;;;;;7.63;5.20;;;18.90;99.90;;;;;;10220534;28;20227;-71
2023/06/08 00:31:27;;;;;;;7.60;5.50;;;18.80;99.90;;;;;;10231459;28;20222;-70
2023/06/08 00:36:27;;;;;;;6.33;5.37;;;18.80;99.90;;;;;;10227702;28;20229;-70
2023/06/08 00:41:29;;;;;;;8.50;5.57;;;18.70;99.90;;;;;;10231164;28;20722;-69
2023/06/08 00:46:30;;;;;;;7.27;5.57;;;18.60;99.90;;;;;;10225942;28;20652;-72
2023/06/08 00:51:41;;;;;;;6.43;5.10;;;18.60;99.90;;;;;;10221438;28;20227;-71
2023/06/08 00:56:48;;;;;;;6.87;5.60;;;18.50;99.90;;;;;;10223801;28;20243;-70
2023/06/08 01:01:50;;;;;;;5.80;5.30;;;18.50;99.90;;;;;;10216158;28;20737;-71
2023/06/08 01:07:19;;;;;;;9.47;5.27;;;18.40;99.90;;;;;;10219553;28;20218;-70
2023/06/08 01:12:27;;;;;;;7.17;5.27;;;18.40;99.90;;;;;;10221360;28;20232;-72
2023/06/08 01:17:35;;;;;;;6.87;5.27;;;18.40;99.90;;;;;;10221900;28;21014;-71
2023/06/08 01:22:47;;;;;;;6.47;5.17;;;18.30;99.90;;;;;;10229448;28;20285;-71
2023/06/08 01:27:48;;;;;;;6.43;5.50;;;18.30;99.90;;;;;;10222154;28;20226;-71
2023/06/08 01:32:48;;;;;;;7.57;5.33;;;18.30;99.90;;;;;;10224799;28;20591;-70
2023/06/08 01:37:55;;;;;;;5.63;5.13;;;18.20;99.90;;;;;;10223333;28;20702;-70
2023/06/08 01:42:57;;;;;;;7.60;5.50;;;18.10;99.90;;;;;;10215375;28;20216;-70
2023/06/08 01:48:03;;;;;;;6.60;6.00;;;18.10;99.90;;;;;;10222776;28;20758;-71
2023/06/08 01:53:05;;;;;;;7.43;5.80;;;18.00;99.90;;;;;;10224075;28;20228;-72
2023/06/08 01:58:05;;;;;;;6.97;6.23;;;17.90;99.90;;;;;;10233855;28;20220;-70
2023/06/08 02:03:06;;;;;;;8.90;6.40;;;17.90;99.90;;;;;;10231350;28;20224;-71
2023/06/08 02:08:06;;;;;;;8.80;6.67;;;17.80;99.90;;;;;;10233761;28;20263;-72
2023/06/08 02:13:07;;;;;;;8.13;6.17;;;17.80;99.90;;;;;;10222514;28;20613;-71
2023/06/08 02:18:07;;;;;;;6.73;5.63;;;17.80;99.90;;;;;;10226706;28;20221;-71
2023/06/08 02:23:08;;;;;;;7.03;6.43;;;17.70;99.90;;;;;;10232111;28;20324;-70
2023/06/08 02:28:09;;;;;;;7.47;6.77;;;17.70;99.90;;;;;;10228545;28;20247;-71
2023/06/08 02:33:09;;;;;;;10.90;7.27;;;17.60;99.90;;;;;;10224618;28;20238;-70
2023/06/08 02:38:10;;;;;;;8.43;7.23;;;17.50;99.90;;;;;;10222993;28;20298;-71
2023/06/08 02:43:10;;;;;;;11.17;6.60;;;17.50;99.90;;;;;;10232382;28;20705;-70
2023/06/08 02:48:11;;;;;;;7.37;6.67;;;17.40;99.90;;;;;;10229981;28;20881;-71
2023/06/08 02:53:12;;;;;;;7.03;6.30;;;17.40;99.90;;;;;;10255597;28;20239;-70
2023/06/08 02:58:14;;;;;;;8.03;6.90;;;17.30;99.90;;;;;;10222487;28;20230;-70
2023/06/08 03:03:14;;;;;;;7.77;6.97;;;17.20;99.90;;;;;;10234002;28;20742;-71
2023/06/08 03:08:15;;;;;;;8.60;6.40;;;17.10;99.90;;;;;;10233183;28;20370;-71
2023/06/08 03:13:15;;;;;;;7.23;6.53;;;17.00;99.90;;;;;;10224296;28;20600;-71
2023/06/08 03:18:16;;;;;;;7.37;5.90;;;17.00;99.90;;;;;;10229174;28;20686;-71
2023/06/08 03:23:19;;;;;;;7.57;6.50;;;16.90;99.90;;;;;;10226409;28;20214;-70
2023/06/08 03:28:20;;;;;;;6.93;6.23;;;16.90;99.90;;;;;;10226288;28;20813;-71
2023/06/08 03:33:21;;;;;;;9.37;6.60;;;16.80;99.90;;;;;;10224166;28;20227;-71
2023/06/08 03:38:25;;;;;;;6.67;6.07;;;16.70;99.90;;;;;;10233838;28;20246;-71
2023/06/08 03:43:28;;;;;;;11.33;6.90;;;16.80;99.90;;;;;;10233387;28;20313;-71
2023/06/08 03:48:29;;;;;;;7.40;6.70;;;16.80;99.90;;;;;;10221345;28;20216;-71
2023/06/08 03:53:30;;;;;;;7.60;6.77;;;16.90;99.90;;;;;;10226307;28;20700;-71
2023/06/08 03:58:30;;;;;;;7.80;7.00;;;17.00;99.90;;;;;;10225553;28;20218;-71
2023/06/08 04:03:31;;;;;;;7.73;6.83;;;17.00;99.90;;;;;;10220228;28;20223;-71
2023/06/08 04:08:32;;;;;;;7.93;7.20;;;17.10;99.90;;;;;;10225562;28;20669;-71
2023/06/08 04:13:37;;;;;;;7.83;7.03;;;17.20;99.90;;;;;;10222443;28;20226;-72
2023/06/08 04:18:39;;;;;;;8.33;6.63;;;17.20;99.90;;;;;;10224306;28;20219;-71
2023/06/08 04:23:40;;;;;;;8.50;7.10;;;17.40;99.90;;;;;;10225700;28;20286;-70
2023/06/08 04:28:41;;;;;;;7.10;6.40;;;17.40;99.90;;;;;;10222674;28;20798;-71
2023/06/08 04:33:42;;;;;;;12.10;6.97;;;17.40;99.90;;;;;;10226287;28;20230;-70
2023/06/08 04:38:42;;;;;;;9.80;6.83;;;17.80;99.90;;;;;;10224588;28;20622;-71
2023/06/08 04:43:44;;;;;;;11.03;7.13;;;18.10;99.90;;;;;;10223067;28;20337;-71
2023/06/08 04:48:44;;;;;;;7.33;6.10;;;18.00;99.90;;;;;;10223383;28;20220;-72
2023/06/08 04:53:45;;;;;;;7.00;6.27;;;18.10;99.90;;;;;;10229574;28;20687;-71
2023/06/08 04:58:45;;;;;;;7.30;6.33;;;18.00;99.90;;;;;;10223640;28;20215;-71
2023/06/08 05:03:46;;;;;;;6.60;6.00;;;18.20;99.90;;;;;;10216790;28;20228;-71
2023/06/08 05:08:47;;;;;;;8.60;5.90;;;19.80;99.90;;;;;;10222350;28;20222;-71
2023/06/08 05:13:47;;;;;;;7.37;6.40;;;21.20;99.90;;;;;;10216956;28;20273;-71
2023/06/08 05:18:48;;;;;;;6.27;5.50;;;22.30;99.90;;;;;;10223004;28;20704;-71
2023/06/08 05:23:48;;;;;;;5.83;5.33;;;23.30;98.00;;;;;;10222376;28;20362;-71
2023/06/08 05:28:49;;;;;;;5.83;5.23;;;23.70;95.20;;;;;;10231376;28;20212;-71
2023/06/08 05:33:50;;;;;;;6.37;5.40;;;23.90;94.00;;;;;;10230920;28;20311;-73
2023/06/08 05:38:50;;;;;;;6.63;5.27;;;24.50;91.60;;;;;;10222435;28;20573;-71
2023/06/08 05:43:51;;;;;;;7.27;5.30;;;25.00;90.20;;;;;;10233910;28;20265;-71
2023/06/08 05:48:51;;;;;;;6.90;5.63;;;25.20;86.80;;;;;;10229650;28;20270;-70
2023/06/08 05:53:52;;;;;;;5.73;5.20;;;25.10;85.90;;;;;;10235515;28;20227;-72
2023/06/08 05:58:52;;;;;;;8.30;5.30;;;25.40;84.00;;;;;;10228811;28;20624;-72
2023/06/08 06:03:53;;;;;;;8.70;4.97;;;26.00;80.90;;;;;;10221402;28;20227;-71
2023/06/08 06:08:53;;;;;;;6.13;5.13;;;26.40;78.70;;;;;;10251899;28;20224;-72
2023/06/08 06:13:54;;;;;;;5.77;5.23;;;26.10;77.60;;;;;;10228638;28;20313;-70
2023/06/08 06:18:56;;;;;;;6.40;4.93;;;26.40;77.20;;;;;;10232513;28;20219;-71
2023/06/08 06:23:57;;;;;;;6.53;5.03;;;26.90;75.40;;;;;;10234249;28;20894;-72
2023/06/08 06:28:57;;;;;;;5.77;4.90;;;27.60;74.00;;;;;;10220956;28;20220;-72
2023/06/08 06:33:58;;;;;;;6.83;5.07;;;27.40;71.50;;;;;;10227487;28;20557;-72
2023/06/08 06:38:58;;;;;;;7.93;5.10;;;27.30;71.90;;;;;;10227181;28;20269;-71
2023/06/08 06:43:59;;;;;;;6.30;4.70;;;27.50;70.90;;;;;;10226523;28;20318;-72
2023/06/08 06:49:00;;;;;;;5.10;4.67;;;27.80;70.10;;;;;;10220434;28;20227;-71
2023/06/08 06:54:00;;;;;;;7.43;4.73;;;28.30;69.80;;;;;;10226401;28;20224;-73
2023/06/08 06:59:02;;;;;;;5.57;4.70;;;28.60;66.70;;;;;;10220058;28;20227;-71
2023/06/08 07:04:06;;;;;;;6.37;5.37;;;29.00;65.50;;;;;;10225683;28;20219;-72
2023/06/08 07:09:07;;;;;;;6.00;5.37;;;29.50;64.20;;;;;;10225585;28;20392;-71
2023/06/08 07:14:07;;;;;;;5.90;5.10;;;29.30;63.40;;;;;;10227657;28;20713;-70
2023/06/08 07:19:08;;;;;;;5.23;4.73;;;29.60;62.60;;;;;;10227924;28;20212;-71
2023/06/08 07:24:09;;;;;;;5.83;4.93;;;30.10;61.80;;;;;;10219504;28;20654;-72
2023/06/08 07:29:10;;;;;;;6.50;4.60;;;31.50;58.30;;;;;;10224214;28;20224;-71
2023/06/08 07:34:11;;;;;;;5.53;4.80;;;31.00;57.60;;;;;;10231400;28;20226;-71
2023/06/08 07:39:11;;;;;;;8.23;4.83;;;31.60;56.80;;;;;;10225239;28;20227;-71
2023/06/08 07:44:12;;;;;;;5.07;4.53;;;32.50;55.80;;;;;;10218635;28;20319;-71
2023/06/08 07:49:12;;;;;;;8.07;4.77;;;32.00;54.70;;;;;;10222822;28;20216;-71
2023/06/08 07:54:18;;;;;;;5.07;4.60;;;32.00;56.00;;;;;;10234218;28;20219;-70
2023/06/08 07:59:21;;;;;;;7.90;5.10;;;32.00;55.10;;;;;;10222068;28;20247;-71
2023/06/08 08:04:22;;;;;;;6.80;4.50;;;32.70;53.80;;;;;;10231875;28;20327;-71
2023/06/08 08:09:22;;;;;;;6.83;4.57;;;32.70;53.40;;;;;;10220014;28;20227;-71
2023/06/08 08:14:23;;;;;;;5.33;4.90;;;32.60;53.60;;;;;;10220602;28;20220;-71
2023/06/08 08:19:23;;;;;;;5.67;5.17;;;32.90;53.70;;;;;;10220670;28;20223;-71
2023/06/08 08:24:27;;;;;;;4.90;4.40;;;32.60;53.70;;;;;;10227805;28;20219;-71
2023/06/08 08:29:27;;;;;;;7.40;4.60;;;33.10;53.40;;;;;;10216199;28;20223;-72
2023/06/08 08:34:28;;;;;;;5.33;4.77;;;33.80;51.70;;;;;;10218932;28;20233;-72
2023/06/08 08:39:29;;;;;;;5.10;4.60;;;33.10;51.90;;;;;;10224382;28;20312;-73
2023/06/08 08:44:32;;;;;;;5.60;4.50;;;32.80;52.70;;;;;;10222251;28;20259;-71
2023/06/08 08:49:39;;;;;;;5.03;4.43;;;33.60;51.80;;;;;;10217115;28;20249;-71
2023/06/08 08:54:42;;;;;;;6.07;4.63;;;35.90;48.60;;;;;;10225611;28;20224;-72
2023/06/08 08:59:45;;;;;;;6.23;4.77;;;35.10;47.80;;;;;;10222931;28;20220;-72
2023/06/08 09:04:45;;;;;;;4.83;4.33;;;35.00;47.90;;;;;;10233270;28;20223;-71
2023/06/08 09:10:25;;;;;;;4.80;4.33;;;34.10;49.70;;;;;;10232222;28;20230;-71
2023/06/08 09:15:42;;;;;;;5.43;4.10;;;35.30;46.40;;;;;;10225896;28;20227;-71
2023/06/08 09:20:43;;;;;;;4.73;4.00;;;35.40;46.40;;;;;;10229717;28;20224;-71
2023/06/08 09:25:46;;;;;;;5.17;4.40;;;34.60;47.00;;;;;;10228458;28;20916;-72
2023/06/08 09:30:48;;;;;;;4.80;4.40;;;34.60;47.60;;;;;;10230956;28;20219;-71
2023/06/08 09:35:58;;;;;;;5.50;4.57;;;34.80;47.50;;;;;;10230303;28;20235;-71
2023/06/08 09:41:28;;;;;;;6.27;4.27;;;35.30;46.40;;;;;;10237942;28;20339;-71
2023/06/08 09:46:41;;;;;;;4.77;4.27;;;34.80;48.70;;;;;;10240597;28;20733;-71
2023/06/08 09:51:50;;;;;;;4.53;4.00;;;36.60;44.90;;;;;;10230188;28;20751;-71
2023/06/08 09:56:54;;;;;;;5.73;4.70;;;38.70;43.00;;;;;;10227643;28;20230;-71
2023/06/08 10:01:58;;;;;;;5.00;4.50;;;38.80;42.30;;;;;;10220799;28;20373;-71
2023/06/08 10:07:03;;;;;;;5.03;4.57;;;39.00;41.10;;;;;;10227651;28;20231;-71
2023/06/08 10:12:05;;;;;;;4.73;4.30;;;38.60;41.20;;;;;;10233147;28;20345;-73
2023/06/08 10:17:07;;;;;;;5.00;4.60;;;37.20;42.70;;;;;;10227451;28;20235;-72
2023/06/08 10:22:09;;;;;;;4.70;4.27;;;37.10;43.50;;;;;;10220527;28;20224;-72
2023/06/08 10:27:36;;;;;;;6.67;4.10;;;36.60;44.50;;;;;;10226087;28;20276;-70
2023/06/08 10:32:42;;;;;;;4.80;4.30;;;36.10;44.50;;;;;;10232334;28;20223;-71
2023/06/08 10:37:47;;;;;;;4.50;4.20;;;34.60;47.90;;;;;;10221082;28;20750;-71
2023/06/08 10:42:53;;;;;;;4.97;4.37;;;35.20;46.10;;;;;;10232732;28;20232;-71
2023/06/08 10:48:02;;;;;;;4.20;3.90;;;37.20;44.70;;;;;;10218568;28;20307;-72
2023/06/08 10:53:04;;;;;;;4.70;4.07;;;36.80;42.20;;;;;;10225181;28;20223;-71
2023/06/08 10:58:15;;;;;;;6.60;4.30;;;37.20;42.90;;;;;;10220293;28;20244;-71
2023/06/08 11:03:20;;;;;;;4.43;3.93;;;37.70;41.90;;;;;;10230919;28;20246;-73
2023/06/08 11:08:21;;;;;;;4.40;4.07;;;39.10;40.60;;;;;;10221060;28;20246;-71
2023/06/08 11:13:22;;;;;;;5.47;3.93;;;39.30;39.50;;;;;;10222558;28;20273;-72
2023/06/08 11:18:24;;;;;;;4.77;4.37;;;37.40;41.20;;;;;;10220944;28;20310;-72
2023/06/08 11:23:25;;;;;;;5.03;4.17;;;37.20;41.40;;;;;;10222419;28;20231;-72
2023/06/08 11:28:25;;;;;;;5.27;4.23;;;38.90;39.80;;;;;;10226059;28;20218;-71
2023/06/08 11:33:26;;;;;;;4.73;4.33;;;40.40;38.80;;;;;;10228264;28;20222;-71
2023/06/08 11:38:26;;;;;;;5.77;4.40;;;38.40;39.10;;;;;;10227521;28;20212;-70
2023/06/08 11:43:27;;;;;;;5.73;4.73;;;35.60;43.10;;;;;;10236685;28;20624;-71
2023/06/08 11:48:27;;;;;;;5.40;4.93;;;33.80;46.70;;;;;;10227983;28;20230;-72
2023/06/08 11:53:28;;;;;;;5.33;4.83;;;32.50;48.30;;;;;;10226756;28;20294;-71
2023/06/08 11:58:30;;;;;;;8.57;5.50;;;32.50;48.40;;;;;;10227061;28;20344;-71
2023/06/08 12:03:33;;;;;;;5.83;5.23;;;32.30;49.70;;;;;;10221383;28;20230;-71
2023/06/08 12:08:34;;;;;;;5.57;5.07;;;31.50;51.00;;;;;;10218856;28;20216;-71
2023/06/08 12:13:35;;;;;;;5.37;4.87;;;30.90;52.30;;;;;;10225478;28;20228;-72
2023/06/08 12:18:40;;;;;;;6.47;4.80;;;30.10;53.40;;;;;;10223673;28;20749;-71
2023/06/08 12:23:40;;;;;;;5.70;5.13;;;30.00;54.10;;;;;;10226632;28;20216;-71
2023/06/08 12:28:42;;;;;;;5.73;5.23;;;30.10;53.90;;;;;;10223605;28;20633;-72
2023/06/08 12:33:42;;;;;;;5.47;4.97;;;30.30;54.00;;;;;;10221963;28;20235;-70
2023/06/08 12:38:44;;;;;;;5.20;4.70;;;30.20;52.80;;;;;;10224220;28;20339;-71
2023/06/08 12:43:46;;;;;;;5.50;4.93;;;29.40;53.90;;;;;;10220445;28;20297;-71
2023/06/08 12:48:47;;;;;;;5.70;5.13;;;29.00;53.20;;;;;;10216338;28;20310;-71
2023/06/08 12:53:48;;;;;;;5.80;4.60;;;28.90;54.60;;;;;;10222174;28;20223;-71
2023/06/08 12:58:53;;;;;;;6.23;5.10;;;29.20;54.70;;;;;;10222991;28;20317;-71
2023/06/08 13:03:53;;;;;;;5.33;4.83;;;29.40;55.20;;;;;;10217720;28;20232;-71
2023/06/08 13:08:54;;;;;;;5.43;4.83;;;29.50;55.00;;;;;;10221683;28;20788;-71
2023/06/08 13:13:55;;;;;;;4.87;4.47;;;29.70;56.80;;;;;;10214586;28;20270;-72
2023/06/08 13:18:55;;;;;;;6.23;4.70;;;29.50;56.30;;;;;;10222261;28;20231;-71
2023/06/08 13:23:56;;;;;;;8.07;4.90;;;29.30;55.70;;;;;;10217510;28;20227;-70
2023/06/08 13:28:57;;;;;;;5.60;4.63;;;29.30;54.60;;;;;;10228720;28;20242;-70
2023/06/08 13:33:57;;;;;;;4.93;4.33;;;29.50;53.80;;;;;;10223072;28;20216;-71
2023/06/08 13:38:58;;;;;;;6.20;4.50;;;30.00;51.60;;;;;;10222735;28;20211;-70
2023/06/08 13:44:00;;;;;;;9.60;4.40;;;30.30;50.60;;;;;;10225623;28;20235;-71
2023/06/08 13:49:01;;;;;;;7.23;4.43;;;30.50;51.00;;;;;;10229581;28;20713;-71
2023/06/08 13:54:02;;;;;;;4.63;4.23;;;30.50;49.30;;;;;;10222030;28;20239;-72
2023/06/08 13:59:06;;;;;;;5.43;4.17;;;30.70;49.20;;;;;;10235867;28;20212;-72
2023/06/08 14:04:06;;;;;;;4.53;3.83;;;30.60;48.50;;;;;;10229906;28;20216;-71
2023/06/08 14:09:09;;;;;;;7.63;4.60;;;30.50;49.10;;;;;;10225979;28;20227;-71
2023/06/08 14:14:13;;;;;;;9.40;4.60;;;30.70;49.80;;;;;;10221937;28;20240;-72
2023/06/08 14:19:14;;;;;;;5.20;4.70;;;31.00;50.80;;;;;;10225418;28;20277;-71
2023/06/08 14:24:15;;;;;;;6.87;5.00;;;31.00;51.60;;;;;;10229049;28;20227;-71
2023/06/08 14:29:15;;;;;;;4.80;4.30;;;31.00;50.50;;;;;;10226640;28;20253;-72
2023/06/08 14:34:16;;;;;;;6.20;4.53;;;31.20;50.20;;;;;;10224916;28;20216;-71
2023/06/08 14:39:16;;;;;;;5.40;4.90;;;30.40;50.00;;;;;;10233291;28;20219;-72
2023/06/08 14:44:17;;;;;;;5.20;4.70;;;30.10;52.40;;;;;;10223707;28;20611;-71
2023/06/08 14:49:17;;;;;;;13.77;5.83;;;29.70;54.30;;;;;;10226355;28;20326;-70
2023/06/08 14:54:20;;;;;;;11.03;5.87;;;29.40;59.20;;;;;;10227366;28;20242;-71
2023/06/08 14:59:20;;;;;;;12.13;6.53;;;28.80;66.00;;;;;;10223228;28;20691;-70
2023/06/08 15:04:21;;;;;;;86.43;12.10;;;27.00;97.70;;;;;;10229313;28;20230;-70
2023/06/08 15:09:22;;;;;;;14.20;7.70;;;23.60;99.90;;;;;;10223239;28;20258;-69
2023/06/08 15:14:22;;;;;;;94.93;18.23;;;20.10;99.90;;;;;;10233394;28;20228;-69
2023/06/08 15:19:23;;;;;;;53.07;18.53;;;19.60;99.90;;;;;;10228630;28;20223;-71
2023/06/08 15:24:23;;;;;;;32.73;17.33;;;17.50;99.90;;;;;;10228279;28;20230;-70
2023/06/08 15:29:24;;;;;;;34.93;28.23;;;17.00;99.90;;;;;;10221449;28;20223;-72
2023/06/08 15:34:25;;;;;;;45.87;33.87;;;16.90;99.90;;;;;;10220237;28;20262;-73
2023/06/08 15:39:28;;;;;;;26.97;24.13;;;17.00;99.90;;;;;;10237668;28;20261;-72
2023/06/08 15:44:29;;;;;;;29.73;25.10;;;16.70;99.90;;;;;;10224157;28;20672;-72
2023/06/08 15:49:29;;;;;;;23.63;21.30;;;16.50;99.90;;;;;;10229316;28;20306;-72
2023/06/08 15:54:30;;;;;;;21.10;18.90;;;16.60;99.90;;;;;;10227644;28;20298;-71
2023/06/08 15:59:30;;;;;;;22.13;19.97;;;16.70;99.90;;;;;;10222625;28;20928;-71
2023/06/08 16:04:31;;;;;;;23.13;21.03;;;16.90;99.90;;;;;;10227876;28;20215;-70
2023/06/08 16:09:32;;;;;;;27.67;25.00;;;16.90;99.90;;;;;;10230808;28;20215;-70
2023/06/08 16:14:32;;;;;;;27.43;23.03;;;17.10;99.90;;;;;;10218376;28;20605;-69
2023/06/08 16:19:35;;;;;;;109.50;20.63;;;16.90;99.90;;;;;;10220739;28;20295;-70
2023/06/08 16:24:35;;;;;;;62.57;18.77;;;16.60;99.90;;;;;;10223911;28;20215;-69
2023/06/08 16:29:36;;;;;;;30.97;19.13;;;15.90;99.90;;;;;;10222842;28;20226;-69
2023/06/08 16:34:37;;;;;;;153.47;43.33;;;15.40;99.90;;;;;;10228540;28;20234;-69
2023/06/08 16:39:37;;;;;;;94.87;35.47;;;15.40;99.90;;;;;;10224299;28;20597;-70
2023/06/08 16:44:38;;;;;;;40.13;26.63;;;15.60;99.90;;;;;;10225558;28;20211;-69
2023/06/08 16:49:38;;;;;;;33.90;23.60;;;15.80;99.90;;;;;;10217930;28;20659;-69
2023/06/08 16:54:39;;;;;;;531.37;77.27;;;15.30;99.90;;;;;;10227244;28;20318;-69
2023/06/08 16:59:40;;;;;;;249.93;57.60;;;15.80;99.90;;;;;;10225485;28;20268;-69
2023/06/08 17:04:40;;;;;;;69.97;31.73;;;16.40;99.90;;;;;;10223652;28;20273;-69
2023/06/08 17:09:41;;;;;;;129.30;44.23;;;16.60;99.90;;;;;;10219455;28;20230;-69
2023/06/08 17:14:42;;;;;;;80.57;36.07;;;16.40;99.90;;;;;;10221912;28;20239;-69
2023/06/08 17:19:43;;;;;;;221.67;48.03;;;16.80;99.90;;;;;;10221893;28;20223;-69
2023/06/08 17:24:43;;;;;;;127.57;43.87;;;17.10;99.90;;;;;;10232765;28;20226;-69
2023/06/08 17:29:44;;;;;;;143.73;44.53;;;17.40;99.90;;;;;;10229651;28;20226;-69
2023/06/08 17:34:45;;;;;;;34.50;24.77;;;17.60;99.90;;;;;;10223293;28;20231;-69
2023/06/08 17:39:48;;;;;;;20.33;16.90;;;17.00;99.90;;;;;;10234721;28;20226;-68
2023/06/08 17:44:49;;;;;;;19.20;17.17;;;16.30;99.90;;;;;;10234524;28;20230;-69
2023/06/08 17:49:50;;;;;;;31.60;22.07;;;16.30;99.90;;;;;;10228442;28;20306;-69
2023/06/08 17:54:54;;;;;;;27.20;20.10;;;16.20;99.90;;;;;;10226146;28;20224;-69
2023/06/08 17:59:54;;;;;;;27.03;18.23;;;16.50;99.90;;;;;;10228831;28;20223;-69
2023/06/08 18:04:55;;;;;;;19.70;17.27;;;16.90;99.90;;;;;;10220559;28;20223;-69
2023/06/08 18:09:55;;;;;;;20.47;13.80;;;17.00;99.90;;;;;;10219147;28;20299;-69
2023/06/08 18:14:56;;;;;;;14.67;12.73;;;17.00;99.90;;;;;;10228300;28;20220;-69
2023/06/08 18:19:57;;;;;;;15.93;14.10;;;17.40;99.90;;;;;;10231559;28;20215;-68
2023/06/08 18:24:58;;;;;;;11.93;10.70;;;17.70;99.90;;;;;;10225776;28;20231;-69
2023/06/08 18:29:59;;;;;;;12.83;9.80;;;17.50;99.90;;;;;;10220398;28;20703;-71
2023/06/08 18:34:59;;;;;;;12.67;8.70;;;17.10;99.90;;;;;;10225874;28;20225;-70
2023/06/08 18:40:00;;;;;;;10.70;9.70;;;17.00;99.90;;;;;;10219935;28;20220;-69
2023/06/08 18:45:01;;;;;;;14.07;8.03;;;17.50;99.90;;;;;;10231227;28;20720;-70
2023/06/08 18:50:02;;;;;;;9.73;8.93;;;17.70;99.90;;;;;;10220459;28;20230;-69
2023/06/08 18:55:04;;;;;;;9.10;8.20;;;18.00;99.90;;;;;;10226343;28;20281;-69
2023/06/08 19:00:08;;;;;;;9.17;8.17;;;18.30;99.90;;;;;;10386502;28;20699;-70
2023/06/08 19:05:10;;;;;;;8.20;7.50;;;18.10;99.90;;;;;;10392076;28;20193;-69
2023/06/08 19:10:11;;;;;;;7.57;6.10;;;18.10;99.90;;;;;;10234196;28;20191;-70
2023/06/08 19:15:11;;;;;;;9.00;6.30;;;17.80;99.90;;;;;;10224808;28;20216;-69
2023/06/08 19:20:12;;;;;;;7.30;6.43;;;17.70;99.90;;;;;;10224860;28;20223;-68
2023/06/08 19:25:13;;;;;;;8.80;7.20;;;18.00;99.90;;;;;;10234433;28;20267;-69
2023/06/08 19:30:13;;;;;;;8.17;7.40;;;18.20;99.90;;;;;;10228659;28;20270;-69
2023/06/08 19:35:14;;;;;;;8.23;7.30;;;18.20;99.90;;;;;;10219639;28;20204;-69
2023/06/08 19:40:15;;;;;;;10.10;8.67;;;18.30;99.90;;;;;;10231302;28;20519;-69
2023/06/08 19:45:15;;;;;;;12.70;11.50;;;18.60;99.90;;;;;;10230635;28;20191;-69
2023/06/08 19:50:16;;;;;;;11.93;9.53;;;18.20;99.90;;;;;;10232198;28;20206;-69
2023/06/08 19:55:17;;;;;;;8.83;7.90;;;18.20;99.90;;;;;;10228609;28;20220;-69
2023/06/08 20:00:17;;;;;;;9.13;8.33;;;17.90;99.90;;;;;;10224965;28;20192;-69
2023/06/08 20:05:18;;;;;;;9.23;8.33;;;17.70;99.90;;;;;;10221666;28;20713;-69
2023/06/08 20:10:19;;;;;;;8.23;7.53;;;17.80;99.90;;;;;;10225075;28;20187;-69
2023/06/08 20:15:19;;;;;;;9.20;8.30;;;17.80;99.90;;;;;;10227343;28;20219;-69
2023/06/08 20:20:20;;;;;;;10.73;8.93;;;17.80;99.90;;;;;;10219509;28;20264;-69
2023/06/08 20:25:22;;;;;;;9.27;7.30;;;17.60;99.90;;;;;;10227076;28;20526;-69
2023/06/08 20:30:22;;;;;;;7.80;7.00;;;17.60;99.90;;;;;;10218494;28;20274;-69
2023/06/08 20:35:23;;;;;;;9.33;7.90;;;17.60;99.90;;;;;;10219868;28;20210;-70
2023/06/08 20:40:23;;;;;;;8.10;7.40;;;17.70;99.90;;;;;;10226905;28;20274;-70
2023/06/08 20:45:24;;;;;;;8.17;7.27;;;17.60;99.90;;;;;;10225294;28;20230;-69
2023/06/08 20:50:25;;;;;;;7.90;6.03;;;17.60;99.90;;;;;;10219319;28;20354;-69
2023/06/08 20:55:27;;;;;;;8.23;7.10;;;17.60;99.90;;;;;;10225613;28;20230;-69
2023/06/08 21:00:28;;;;;;;8.20;6.50;;;17.70;99.90;;;;;;10218562;28;20219;-69
2023/06/08 21:05:31;;;;;;;7.70;6.33;;;17.70;99.90;;;;;;10218808;28;20302;-69
2023/06/08 21:10:32;;;;;;;7.40;6.50;;;17.90;99.90;;;;;;10223675;28;20238;-70
2023/06/08 21:15:32;;;;;;;8.57;7.03;;;17.90;99.90;;;;;;10218139;28;20265;-70
2023/06/08 21:20:33;;;;;;;10.53;7.03;;;18.00;99.90;;;;;;10220214;28;20223;-69
2023/06/08 21:25:33;;;;;;;7.57;6.73;;;18.00;99.90;;;;;;10217434;28;20220;-70
2023/06/08 21:30:34;;;;;;;9.27;6.53;;;18.00;99.90;;;;;;10228647;28;20216;-70
2023/06/08 21:35:35;;;;;;;7.23;6.50;;;17.80;99.90;;;;;;10230780;28;20260;-70
2023/06/08 21:40:35;;;;;;;8.33;7.00;;;17.70;99.90;;;;;;10227680;28;20810;-71
2023/06/08 21:45:36;;;;;;;7.80;6.53;;;17.80;99.90;;;;;;10226266;28;20218;-69
2023/06/08 21:50:37;;;;;;;8.03;7.00;;;17.90;99.90;;;;;;10223803;28;20235;-71
2023/06/08 21:55:38;;;;;;;7.40;6.70;;;17.90;99.90;;;;;;10220787;28;20234;-70
2023/06/08 22:00:39;;;;;;;8.40;7.70;;;17.80;99.90;;;;;;10214186;28;20216;-70
2023/06/08 22:05:39;;;;;;;8.57;7.50;;;17.80;99.90;;;;;;10226895;28;20235;-71
2023/06/08 22:10:40;;;;;;;10.53;8.17;;;17.60;99.90;;;;;;10216778;28;20220;-71
2023/06/08 22:15:41;;;;;;;8.13;7.20;;;17.50;99.90;;;;;;10226303;28;20742;-71
2023/06/08 22:20:44;;;;;;;7.93;6.47;;;17.40;99.90;;;;;;10228481;28;20270;-70
2023/06/08 22:25:44;;;;;;;7.77;6.97;;;17.40;99.90;;;;;;10226866;28;20228;-72
2023/06/08 22:30:47;;;;;;;7.80;7.00;;;17.40;99.90;;;;;;10233922;28;20223;-71
2023/06/08 22:35:51;;;;;;;8.07;7.37;;;17.30;99.90;;;;;;10227587;28;20665;-71
2023/06/08 22:40:51;;;;;;;7.97;7.17;;;17.30;99.90;;;;;;10227482;28;20264;-71
2023/06/08 22:45:55;;;;;;;9.90;8.27;;;17.30;99.90;;;;;;10227268;28;20247;-71
2023/06/08 22:50:56;;;;;;;8.27;7.43;;;17.30;99.90;;;;;;10235818;28;20231;-70
2023/06/08 22:55:56;;;;;;;9.00;8.10;;;17.20;99.90;;;;;;10217666;28;20227;-71
2023/06/08 23:00:57;;;;;;;9.40;8.50;;;17.20;99.90;;;;;;10235484;28;20229;-71
2023/06/08 23:05:58;;;;;;;10.13;9.13;;;17.10;99.90;;;;;;10218822;28;20220;-70
2023/06/08 23:10:59;;;;;;;10.37;9.47;;;17.00;99.90;;;;;;10219300;28;20220;-71
2023/06/08 23:16:00;;;;;;;10.63;9.53;;;16.90;99.90;;;;;;10225281;28;20608;-70
2023/06/08 23:21:02;;;;;;;11.43;10.33;;;16.90;99.90;;;;;;10218949;28;20227;-70
2023/06/08 23:26:03;;;;;;;11.70;10.50;;;16.80;99.90;;;;;;10227205;28;20242;-70
2023/06/08 23:31:04;;;;;;;11.70;10.60;;;16.80;99.90;;;;;;10230248;28;20226;-71
2023/06/08 23:36:07;;;;;;;11.67;10.67;;;16.80;99.90;;;;;;10218953;28;20232;-71
2023/06/08 23:41:10;;;;;;;11.10;10.10;;;16.60;99.90;;;;;;10232219;28;20237;-70
2023/06/08 23:46:12;;;;;;;11.80;10.60;;;16.60;99.90;;;;;;10230688;28;20226;-70
2023/06/08 23:51:13;;;;;;;12.10;10.80;;;16.50;99.90;;;;;;10227089;28;20634;-72
2023/06/08 23:56:13;;;;;;;11.70;10.70;;;16.40;99.90;;;;;;10225005;28;20282;-70
